Time;durP1;ratioP1;P1;durP2;ratioP2;P2;SDS_P1;SDS_P2;PMS_P1;PMS_P2;Temp;Humidity;BMP_temperature;BMP_pressure;BME280_temperature;BME280_humidity;BME280_pressure;Samples;Min_cycle;Max_cycle;Signal;HPM_P1;HPM_P2
2022/08/04 00:02:19;;;;;;;;;;;;;;;;;;5055973;28;19916;-81
2022/08/04 00:04:44;;;;;;;;;;;;;;;;;;5055877;28;19916;-80
2022/08/04 00:07:09;;;;;;;;;;;;;;;;;;5039634;28;20437;-80
2022/08/04 00:09:35;;;;;;;;;;;;;;;;;;5023326;28;19920;-81
2022/08/04 00:12:01;;;;;;;;;;;;;;;;;;5074243;28;20383;-80
2022/08/04 00:14:26;;;;;;;;;;;;;;;;;;5056574;28;19912;-80
2022/08/04 00:16:53;;;;;;;;;;;;;;;;;;5057146;28;19938;-80
2022/08/04 00:19:18;;;;;;;;;;;;;;;;;;5076063;28;19916;-81
2022/08/04 00:21:43;;;;;;;;;;;;;;;;;;5044771;28;19935;-81
2022/08/04 00:24:09;;;;;;;;;;;;;;;;;;5061732;28;19912;-81
2022/08/04 00:26:34;;;;;;;;;;;;;;;;;;5045928;28;19920;-80
2022/08/04 00:29:00;;;;;;;;;;;;;;;;;;5084084;28;19913;-80
2022/08/04 00:31:25;;;;;;;;;;;;;;;;;;5082362;28;20315;-81
2022/08/04 00:33:50;;;;;;;;;;;;;;;;;;5072792;28;19912;-81
2022/08/04 00:36:16;;;;;;;;;;;;;;;;;;5038643;28;19912;-81
2022/08/04 00:38:41;;;;;;;;;;;;;;;;;;5073018;28;20395;-79
2022/08/04 00:41:07;;;;;;;;;;;;;;;;;;5073142;28;20369;-80
2022/08/04 00:43:32;;;;;;;;;;;;;;;;;;5075804;28;19962;-80
2022/08/04 00:45:57;;;;;;;;;;;;;;;;;;5073626;28;20310;-80
2022/08/04 00:48:26;;;;;;;;;;;;;;;;;;5039081;28;19912;-80
2022/08/04 00:50:54;;;;;;;;;;;;;;;;;;5073060;28;19919;-80
2022/08/04 00:53:19;;;;;;;;;;;;;;;;;;5072435;28;19913;-80
2022/08/04 00:55:45;;;;;;;;;;;;;;;;;;5072984;28;20284;-81
2022/08/04 00:58:12;;;;;;;;;;;;;;;;;;5055145;28;20295;-81
2022/08/04 01:00:38;;;;;;;;;;;;;;;;;;5072961;28;19919;-81
2022/08/04 01:03:03;;;;;;;;;;;;;;;;;;5072074;28;19912;-80
2022/08/04 01:05:28;;;;;;;;;;;;;;;;;;5073170;28;19970;-81
2022/08/04 01:07:57;;;;;;;;;;;;;;;;;;5075437;28;20163;-80
2022/08/04 01:10:23;;;;;;;;;;;;;;;;;;5076887;28;19959;-81
2022/08/04 01:12:48;;;;;;;;;;;;;;;;;;5078209;28;19947;-83
2022/08/04 01:15:13;;;;;;;;;;;;;;;;;;5077176;28;20405;-82
2022/08/04 01:17:39;;;;;;;;;;;;;;;;;;5082418;28;20311;-85
2022/08/04 01:20:06;;;;;;;;;;;;;;;;;;5083513;28;19928;-81
2022/08/04 01:22:31;;;;;;;;;;;;;;;;;;5081408;28;19978;-80
2022/08/04 01:24:57;;;;;;;;;;;;;;;;;;5057343;28;20205;-81
2022/08/04 01:27:22;;;;;;;;;;;;;;;;;;5076689;28;19946;-81
2022/08/04 01:29:47;;;;;;;;;;;;;;;;;;5055616;28;19917;-81
2022/08/04 01:32:13;;;;;;;;;;;;;;;;;;5072768;28;20267;-81
2022/08/04 01:34:40;;;;;;;;;;;;;;;;;;5072124;28;19908;-80
2022/08/04 01:37:06;;;;;;;;;;;;;;;;;;5055052;28;20433;-80
2022/08/04 01:39:40;;;;;;;;;;;;;;;;;;5054738;28;19916;-81
2022/08/04 01:42:06;;;;;;;;;;;;;;;;;;5072586;28;19951;-81
2022/08/04 01:44:31;;;;;;;;;;;;;;;;;;5038777;28;19927;-81
2022/08/04 01:46:57;;;;;;;;;;;;;;;;;;5055954;28;20264;-81
2022/08/04 01:49:22;;;;;;;;;;;;;;;;;;5073557;28;20327;-81
2022/08/04 01:51:47;;;;;;;;;;;;;;;;;;5074965;28;20393;-80
2022/08/04 01:54:13;;;;;;;;;;;;;;;;;;5040343;28;19920;-81
2022/08/04 01:56:38;;;;;;;;;;;;;;;;;;5057059;28;19975;-81
2022/08/04 01:59:04;;;;;;;;;;;;;;;;;;5074702;28;19916;-81
2022/08/04 02:01:29;;;;;;;;;;;;;;;;;;5039827;28;19912;-81
2022/08/04 02:03:55;;;;;;;;;;;;;;;;;;5053781;28;19947;-80
2022/08/04 02:06:20;;;;;;;;;;;;;;;;;;5053949;28;19912;-80
2022/08/04 02:08:45;;;;;;;;;;;;;;;;;;5037488;28;19956;-79
2022/08/04 02:11:11;;;;;;;;;;;;;;;;;;5072013;28;19912;-82
2022/08/04 02:13:36;;;;;;;;;;;;;;;;;;5071405;28;19947;-81
2022/08/04 02:16:01;;;;;;;;;;;;;;;;;;5040771;28;20438;-82
2022/08/04 02:18:27;;;;;;;;;;;;;;;;;;5057696;28;19917;-81
2022/08/04 02:20:52;;;;;;;;;;;;;;;;;;5075498;28;19919;-81
2022/08/04 02:23:17;;;;;;;;;;;;;;;;;;5057157;28;20295;-80
2022/08/04 02:25:43;;;;;;;;;;;;;;;;;;5075580;28;20003;-81
2022/08/04 02:28:08;;;;;;;;;;;;;;;;;;5075667;28;19966;-81
2022/08/04 02:30:33;;;;;;;;;;;;;;;;;;5075595;28;19923;-80
2022/08/04 02:32:59;;;;;;;;;;;;;;;;;;5057188;28;19913;-81
2022/08/04 02:35:25;;;;;;;;;;;;;;;;;;5075471;28;19928;-82
2022/08/04 02:37:50;;;;;;;;;;;;;;;;;;5057394;28;20019;-81
2022/08/04 02:40:16;;;;;;;;;;;;;;;;;;5075162;28;19912;-81
2022/08/04 02:42:41;;;;;;;;;;;;;;;;;;5056940;28;19920;-80
2022/08/04 02:45:07;;;;;;;;;;;;;;;;;;5040975;28;19912;-80
2022/08/04 02:47:33;;;;;;;;;;;;;;;;;;5075328;28;19967;-80
2022/08/04 02:49:58;;;;;;;;;;;;;;;;;;5057144;28;20367;-82
2022/08/04 02:52:23;;;;;;;;;;;;;;;;;;5040389;28;19916;-81
2022/08/04 02:54:49;;;;;;;;;;;;;;;;;;5075107;28;20371;-81
2022/08/04 02:57:14;;;;;;;;;;;;;;;;;;5057270;28;19923;-80
2022/08/04 02:59:39;;;;;;;;;;;;;;;;;;5056924;28;19924;-81
2022/08/04 03:02:05;;;;;;;;;;;;;;;;;;5074691;28;19995;-81
2022/08/04 03:04:30;;;;;;;;;;;;;;;;;;5074391;28;19920;-81
2022/08/04 03:06:55;;;;;;;;;;;;;;;;;;5074816;28;19913;-82
2022/08/04 03:09:21;;;;;;;;;;;;;;;;;;5075238;28;19987;-82
2022/08/04 03:11:46;;;;;;;;;;;;;;;;;;5075741;28;20392;-81
2022/08/04 03:14:17;;;;;;;;;;;;;;;;;;5074685;28;19920;-81
2022/08/04 03:16:42;;;;;;;;;;;;;;;;;;5074804;28;20066;-81
2022/08/04 03:19:08;;;;;;;;;;;;;;;;;;5075518;28;20339;-82
2022/08/04 03:21:33;;;;;;;;;;;;;;;;;;5041345;28;19908;-81
2022/08/04 03:23:58;;;;;;;;;;;;;;;;;;5074478;28;19919;-80
2022/08/04 03:26:24;;;;;;;;;;;;;;;;;;5056059;28;20003;-80
2022/08/04 03:28:49;;;;;;;;;;;;;;;;;;5056362;28;19935;-82
2022/08/04 03:31:14;;;;;;;;;;;;;;;;;;5074143;28;20015;-80
2022/08/04 03:33:40;;;;;;;;;;;;;;;;;;5039632;28;19961;-80
2022/08/04 03:36:05;;;;;;;;;;;;;;;;;;5056459;28;20320;-81
2022/08/04 03:38:30;;;;;;;;;;;;;;;;;;5056445;28;19916;-81
2022/08/04 03:40:56;;;;;;;;;;;;;;;;;;5074384;28;19916;-79
2022/08/04 03:43:21;;;;;;;;;;;;;;;;;;5056053;28;20026;-80
2022/08/04 03:45:47;;;;;;;;;;;;;;;;;;5074298;28;19912;-80
2022/08/04 03:48:12;;;;;;;;;;;;;;;;;;5074713;28;19917;-80
2022/08/04 03:50:37;;;;;;;;;;;;;;;;;;5073699;28;20262;-81
2022/08/04 03:53:09;;;;;;;;;;;;;;;;;;5073697;28;19913;-80
2022/08/04 03:55:34;;;;;;;;;;;;;;;;;;5055908;28;20364;-80
2022/08/04 03:58:00;;;;;;;;;;;;;;;;;;5073853;28;19913;-80
2022/08/04 04:00:28;;;;;;;;;;;;;;;;;;5056680;28;20290;-82
2022/08/04 04:02:54;;;;;;;;;;;;;;;;;;5074311;28;19916;-82
2022/08/04 04:05:19;;;;;;;;;;;;;;;;;;5058136;28;20529;-82
2022/08/04 04:07:44;;;;;;;;;;;;;;;;;;5075109;28;19920;-80
2022/08/04 04:10:10;;;;;;;;;;;;;;;;;;5056029;28;20359;-81
2022/08/04 04:12:35;;;;;;;;;;;;;;;;;;5073473;28;19917;-81
2022/08/04 04:15:00;;;;;;;;;;;;;;;;;;5073638;28;19966;-80
2022/08/04 04:17:26;;;;;;;;;;;;;;;;;;5039242;28;19989;-81
2022/08/04 04:19:51;;;;;;;;;;;;;;;;;;5073381;28;20379;-80
2022/08/04 04:22:16;;;;;;;;;;;;;;;;;;5073415;28;20007;-81
2022/08/04 04:24:42;;;;;;;;;;;;;;;;;;5055145;28;19909;-80
2022/08/04 04:27:07;;;;;;;;;;;;;;;;;;5073187;28;19913;-79
2022/08/04 04:29:32;;;;;;;;;;;;;;;;;;5055095;28;20460;-81
2022/08/04 04:31:58;;;;;;;;;;;;;;;;;;5073175;28;19912;-81
2022/08/04 04:34:23;;;;;;;;;;;;;;;;;;5072875;28;19919;-80
2022/08/04 04:36:49;;;;;;;;;;;;;;;;;;5073519;28;20011;-81
2022/08/04 04:39:14;;;;;;;;;;;;;;;;;;5071878;28;19917;-81
2022/08/04 04:41:40;;;;;;;;;;;;;;;;;;5038769;28;20398;-81
2022/08/04 04:44:05;;;;;;;;;;;;;;;;;;5072364;28;19924;-81
2022/08/04 04:46:30;;;;;;;;;;;;;;;;;;5072847;28;19924;-80
2022/08/04 04:48:56;;;;;;;;;;;;;;;;;;5054637;28;20421;-81
2022/08/04 04:51:21;;;;;;;;;;;;;;;;;;5072687;28;19919;-81
2022/08/04 04:53:46;;;;;;;;;;;;;;;;;;5072437;28;19959;-81
2022/08/04 04:56:12;;;;;;;;;;;;;;;;;;5055140;28;19912;-80
2022/08/04 04:58:37;;;;;;;;;;;;;;;;;;5054913;28;19995;-80
2022/08/04 05:01:02;;;;;;;;;;;;;;;;;;5072637;28;20007;-81
2022/08/04 05:03:28;;;;;;;;;;;;;;;;;;5074194;28;19965;-79
2022/08/04 05:05:53;;;;;;;;;;;;;;;;;;5077756;28;19955;-81
2022/08/04 05:08:19;;;;;;;;;;;;;;;;;;5058174;28;19916;-81
2022/08/04 05:10:44;;;;;;;;;;;;;;;;;;5078079;28;20019;-81
2022/08/04 05:13:09;;;;;;;;;;;;;;;;;;5076959;28;20367;-80
2022/08/04 05:15:35;;;;;;;;;;;;;;;;;;5082499;28;19916;-81
2022/08/04 05:18:00;;;;;;;;;;;;;;;;;;5058325;28;19919;-80
2022/08/04 05:20:25;;;;;;;;;;;;;;;;;;5055932;28;19916;-80
2022/08/04 05:22:51;;;;;;;;;;;;;;;;;;5056958;28;20247;-80
2022/08/04 05:25:16;;;;;;;;;;;;;;;;;;5056960;28;19999;-81
2022/08/04 05:27:42;;;;;;;;;;;;;;;;;;5058353;28;19958;-81
2022/08/04 05:30:07;;;;;;;;;;;;;;;;;;5074517;28;19922;-79
2022/08/04 05:32:36;;;;;;;;;;;;;;;;;;5073527;28;19959;-81
2022/08/04 05:35:01;;;;;;;;;;;;;;;;;;5072263;28;20409;-80
2022/08/04 05:37:26;;;;;;;;;;;;;;;;;;5053914;28;19912;-80
2022/08/04 05:39:52;;;;;;;;;;;;;;;;;;5071490;28;19917;-80
2022/08/04 05:42:17;;;;;;;;;;;;;;;;;;5071916;28;19912;-81
2022/08/04 05:44:42;;;;;;;;;;;;;;;;;;5072044;28;19958;-80
2022/08/04 05:47:08;;;;;;;;;;;;;;;;;;5072383;28;20291;-80
2022/08/04 05:49:33;;;;;;;;;;;;;;;;;;5054754;28;20007;-80
2022/08/04 05:51:59;;;;;;;;;;;;;;;;;;5072351;28;19913;-81
2022/08/04 05:54:24;;;;;;;;;;;;;;;;;;5053829;28;20418;-80
2022/08/04 05:56:49;;;;;;;;;;;;;;;;;;5072245;28;19920;-80
2022/08/04 05:59:15;;;;;;;;;;;;;;;;;;5053650;28;19989;-81
2022/08/04 06:01:42;;;;;;;;;;;;;;;;;;5071517;28;21811;-81
2022/08/04 06:04:07;;;;;;;;;;;;;;;;;;5054041;28;19913;-81
2022/08/04 06:06:33;;;;;;;;;;;;;;;;;;5054117;28;19913;-81
2022/08/04 06:08:58;;;;;;;;;;;;;;;;;;5054158;28;20374;-79
2022/08/04 06:11:23;;;;;;;;;;;;;;;;;;5072197;28;19920;-80
2022/08/04 06:13:49;;;;;;;;;;;;;;;;;;5071728;28;20332;-81
2022/08/04 06:16:15;;;;;;;;;;;;;;;;;;5037639;28;19917;-81
2022/08/04 06:18:40;;;;;;;;;;;;;;;;;;5054560;28;19923;-81
2022/08/04 06:21:06;;;;;;;;;;;;;;;;;;5055156;28;19912;-81
2022/08/04 06:23:31;;;;;;;;;;;;;;;;;;5037524;28;19962;-80
2022/08/04 06:25:56;;;;;;;;;;;;;;;;;;5055119;28;20070;-81
2022/08/04 06:28:22;;;;;;;;;;;;;;;;;;5072437;28;19913;-80
2022/08/04 06:30:49;;;;;;;;;;;;;;;;;;5054913;28;20372;-81
2022/08/04 06:33:32;;;;;;;;;;;;;;;;;;5037257;28;19934;-82
2022/08/04 06:35:57;;;;;;;;;;;;;;;;;;5021596;28;20598;-81
2022/08/04 06:38:23;;;;;;;;;;;;;;;;;;5053907;28;19916;-80
2022/08/04 06:40:48;;;;;;;;;;;;;;;;;;5071189;28;19913;-81
2022/08/04 06:43:13;;;;;;;;;;;;;;;;;;5036683;28;19920;-82
2022/08/04 06:45:40;;;;;;;;;;;;;;;;;;5073293;28;20358;-81
2022/08/04 06:48:05;;;;;;;;;;;;;;;;;;5053904;28;19978;-81
2022/08/04 06:50:30;;;;;;;;;;;;;;;;;;5071598;28;19912;-81
2022/08/04 06:52:56;;;;;;;;;;;;;;;;;;5070938;28;19916;-82
2022/08/04 06:55:23;;;;;;;;;;;;;;;;;;5071232;28;20269;-81
2022/08/04 06:57:49;;;;;;;;;;;;;;;;;;5053687;28;19913;-81
2022/08/04 07:00:14;;;;;;;;;;;;;;;;;;5071369;28;19920;-82
2022/08/04 07:02:39;;;;;;;;;;;;;;;;;;5055987;28;20050;-81
2022/08/04 07:05:05;;;;;;;;;;;;;;;;;;5040160;28;19916;-82
2022/08/04 07:07:30;;;;;;;;;;;;;;;;;;5057130;28;20409;-80
2022/08/04 07:09:56;;;;;;;;;;;;;;;;;;5056963;28;20003;-78
2022/08/04 07:12:21;;;;;;;;;;;;;;;;;;5074415;28;20379;-78
2022/08/04 07:14:47;;;;;;;;;;;;;;;;;;5056660;28;19909;-79
2022/08/04 07:17:12;;;;;;;;;;;;;;;;;;5040519;28;19974;-79
2022/08/04 07:19:37;;;;;;;;;;;;;;;;;;5075003;28;19928;-80
2022/08/04 07:22:04;;;;;;;;;;;;;;;;;;5040551;28;19913;-79
2022/08/04 07:24:29;;;;;;;;;;;;;;;;;;5040508;28;19932;-81
2022/08/04 07:26:54;;;;;;;;;;;;;;;;;;5078362;28;19916;-82
2022/08/04 07:29:20;;;;;;;;;;;;;;;;;;5089277;28;19923;-81
2022/08/04 07:31:47;;;;;;;;;;;;;;;;;;5089874;28;19924;-80
2022/08/04 07:34:12;;;;;;;;;;;;;;;;;;5090334;28;19936;-80
2022/08/04 07:36:37;;;;;;;;;;;;;;;;;;5072940;28;19920;-78
2022/08/04 07:39:03;;;;;;;;;;;;;;;;;;5063024;28;19969;-80
2022/08/04 07:41:28;;;;;;;;;;;;;;;;;;5075611;28;20413;-81
2022/08/04 07:43:54;;;;;;;;;;;;;;;;;;5057005;28;20380;-80
2022/08/04 07:46:19;;;;;;;;;;;;;;;;;;5040479;28;20276;-79
2022/08/04 07:48:44;;;;;;;;;;;;;;;;;;5074943;28;19967;-78
2022/08/04 07:51:10;;;;;;;;;;;;;;;;;;5040316;28;19913;-79
2022/08/04 07:53:35;;;;;;;;;;;;;;;;;;5040139;28;19917;-81
2022/08/04 07:56:01;;;;;;;;;;;;;;;;;;5074984;28;19924;-79
2022/08/04 07:58:27;;;;;;;;;;;;;;;;;;5023537;28;19952;-80
2022/08/04 08:00:52;;;;;;;;;;;;;;;;;;5056405;28;19912;-81
2022/08/04 08:03:19;;;;;;;;;;;;;;;;;;5055833;28;20352;-78
2022/08/04 08:05:44;;;;;;;;;;;;;;;;;;5073871;28;20011;-80
2022/08/04 08:08:10;;;;;;;;;;;;;;;;;;5055763;28;19996;-79
2022/08/04 08:10:36;;;;;;;;;;;;;;;;;;5073382;28;19916;-80
2022/08/04 08:13:01;;;;;;;;;;;;;;;;;;5055312;28;19919;-80
2022/08/04 08:15:27;;;;;;;;;;;;;;;;;;5073388;28;20392;-79
2022/08/04 08:17:53;;;;;;;;;;;;;;;;;;5055580;28;19958;-80
2022/08/04 08:20:18;;;;;;;;;;;;;;;;;;5073144;28;20291;-80
2022/08/04 08:22:43;;;;;;;;;;;;;;;;;;5022314;28;20287;-81
2022/08/04 08:25:09;;;;;;;;;;;;;;;;;;5055368;28;19999;-80
2022/08/04 08:27:35;;;;;;;;;;;;;;;;;;5073329;28;20356;-80
2022/08/04 08:30:00;;;;;;;;;;;;;;;;;;5022209;28;19916;-79
2022/08/04 08:32:25;;;;;;;;;;;;;;;;;;5055186;28;20355;-79
2022/08/04 08:34:51;;;;;;;;;;;;;;;;;;5055392;28;19960;-80
2022/08/04 08:37:16;;;;;;;;;;;;;;;;;;5055710;28;20019;-79
2022/08/04 08:39:42;;;;;;;;;;;;;;;;;;5055242;28;19939;-79
2022/08/04 08:42:07;;;;;;;;;;;;;;;;;;5055543;28;19943;-80
2022/08/04 08:44:32;;;;;;;;;;;;;;;;;;5072964;28;19958;-80
2022/08/04 08:46:58;;;;;;;;;;;;;;;;;;5055067;28;19912;-80
2022/08/04 08:49:23;;;;;;;;;;;;;;;;;;5073074;28;20003;-80
2022/08/04 08:51:49;;;;;;;;;;;;;;;;;;5055151;28;19912;-80
2022/08/04 08:54:14;;;;;;;;;;;;;;;;;;5072109;28;20399;-80
2022/08/04 08:56:40;;;;;;;;;;;;;;;;;;5038746;28;19913;-81
2022/08/04 08:59:06;;;;;;;;;;;;;;;;;;5072771;28;19916;-79
2022/08/04 09:01:31;;;;;;;;;;;;;;;;;;5072879;28;19909;-78
2022/08/04 09:03:56;;;;;;;;;;;;;;;;;;5055760;28;20101;-80
2022/08/04 09:06:22;;;;;;;;;;;;;;;;;;5060077;28;19920;-80
2022/08/04 09:08:47;;;;;;;;;;;;;;;;;;5059169;28;20336;-81
2022/08/04 09:11:13;;;;;;;;;;;;;;;;;;5078310;28;19913;-80
2022/08/04 09:13:38;;;;;;;;;;;;;;;;;;5080434;28;19908;-79
2022/08/04 09:16:04;;;;;;;;;;;;;;;;;;5080134;28;20383;-79
2022/08/04 09:18:29;;;;;;;;;;;;;;;;;;5080131;28;19916;-79
2022/08/04 09:20:54;;;;;;;;;;;;;;;;;;5078642;28;19963;-80
2022/08/04 09:23:22;;;;;;;;;;;;;;;;;;5076493;28;19912;-80
2022/08/04 09:25:47;;;;;;;;;;;;;;;;;;5072063;28;19966;-81
2022/08/04 09:28:13;;;;;;;;;;;;;;;;;;5072781;28;19913;-80
2022/08/04 09:30:38;;;;;;;;;;;;;;;;;;5082917;22;19951;-79
2022/08/04 09:33:04;;;;;;;;;;;;;;;;;;5054277;28;20363;-78
2022/08/04 09:35:29;;;;;;;;;;;;;;;;;;5072200;28;19913;-78
2022/08/04 09:37:55;;;;;;;;;;;;;;;;;;5054753;28;19912;-78
2022/08/04 09:40:20;;;;;;;;;;;;;;;;;;5072782;28;19947;-79
2022/08/04 09:42:45;;;;;;;;;;;;;;;;;;5055237;28;19920;-78
2022/08/04 09:45:11;;;;;;;;;;;;;;;;;;5072214;28;20398;-77
2022/08/04 09:47:36;;;;;;;;;;;;;;;;;;5071666;28;19940;-77
2022/08/04 09:50:02;;;;;;;;;;;;;;;;;;5071475;28;19966;-77
2022/08/04 09:52:27;;;;;;;;;;;;;;;;;;5071117;28;19958;-78
2022/08/04 09:54:53;;;;;;;;;;;;;;;;;;5071715;28;20378;-78
2022/08/04 09:57:18;;;;;;;;;;;;;;;;;;5053943;28;20427;-77
2022/08/04 09:59:43;;;;;;;;;;;;;;;;;;5071500;28;19916;-77
2022/08/04 10:02:09;;;;;;;;;;;;;;;;;;5072997;28;20232;-78
2022/08/04 10:04:34;;;;;;;;;;;;;;;;;;5072130;28;20379;-77
2022/08/04 10:07:01;;;;;;;;;;;;;;;;;;5072762;28;19920;-79
2022/08/04 10:09:26;;;;;;;;;;;;;;;;;;5072514;28;19912;-77
2022/08/04 10:11:53;;;;;;;;;;;;;;;;;;5071782;28;20264;-78
2022/08/04 10:14:19;;;;;;;;;;;;;;;;;;5071244;28;19927;-77
2022/08/04 10:16:44;;;;;;;;;;;;;;;;;;5071835;28;19909;-76
2022/08/04 10:19:09;;;;;;;;;;;;;;;;;;5071125;28;19917;-75
2022/08/04 10:21:35;;;;;;;;;;;;;;;;;;5071443;28;19912;-77
2022/08/04 10:24:00;;;;;;;;;;;;;;;;;;5070868;28;19955;-76
2022/08/04 10:26:25;;;;;;;;;;;;;;;;;;5071438;28;19908;-77
2022/08/04 10:28:51;;;;;;;;;;;;;;;;;;5053231;28;19918;-77
2022/08/04 10:31:16;;;;;;;;;;;;;;;;;;5071385;28;20354;-77
2022/08/04 10:33:41;;;;;;;;;;;;;;;;;;5052879;28;19912;-79
2022/08/04 10:36:07;;;;;;;;;;;;;;;;;;5054986;28;19913;-78
2022/08/04 10:38:32;;;;;;;;;;;;;;;;;;5057316;28;19995;-78
2022/08/04 10:40:57;;;;;;;;;;;;;;;;;;5075276;28;20298;-78
2022/08/04 10:43:23;;;;;;;;;;;;;;;;;;5075117;28;19913;-77
2022/08/04 10:45:48;;;;;;;;;;;;;;;;;;5075561;28;19963;-77
2022/08/04 10:48:13;;;;;;;;;;;;;;;;;;5075848;28;19920;-78
2022/08/04 10:50:39;;;;;;;;;;;;;;;;;;5075743;28;19913;-78
2022/08/04 10:53:04;;;;;;;;;;;;;;;;;;5074672;28;19913;-78
2022/08/04 10:55:30;;;;;;;;;;;;;;;;;;5057193;28;19913;-78
2022/08/04 10:57:55;;;;;;;;;;;;;;;;;;5074862;28;20445;-78
2022/08/04 11:00:21;;;;;;;;;;;;;;;;;;5056481;28;20290;-78
2022/08/04 11:02:46;;;;;;;;;;;;;;;;;;5074329;28;19992;-78
2022/08/04 11:05:11;;;;;;;;;;;;;;;;;;5075040;28;20373;-78
2022/08/04 11:07:37;;;;;;;;;;;;;;;;;;5074997;28;20346;-78
2022/08/04 11:10:02;;;;;;;;;;;;;;;;;;5057605;28;19935;-78
2022/08/04 11:12:28;;;;;;;;;;;;;;;;;;5075371;28;19916;-76
2022/08/04 11:14:53;;;;;;;;;;;;;;;;;;5075356;28;19917;-77
2022/08/04 11:17:19;;;;;;;;;;;;;;;;;;5057366;28;19938;-79
2022/08/04 11:19:44;;;;;;;;;;;;;;;;;;5074389;28;19920;-78
2022/08/04 11:22:09;;;;;;;;;;;;;;;;;;5056881;28;20351;-78
2022/08/04 11:24:35;;;;;;;;;;;;;;;;;;5056398;28;19912;-78
2022/08/04 11:27:00;;;;;;;;;;;;;;;;;;5074269;28;20314;-77
2022/08/04 11:29:25;;;;;;;;;;;;;;;;;;5074038;28;19912;-77
2022/08/04 11:31:51;;;;;;;;;;;;;;;;;;5074317;28;20300;-79
2022/08/04 11:34:16;;;;;;;;;;;;;;;;;;5073864;28;20440;-78
2022/08/04 11:36:42;;;;;;;;;;;;;;;;;;5074707;28;19963;-79
2022/08/04 11:39:10;;;;;;;;;;;;;;;;;;5074544;28;20283;-79
2022/08/04 11:41:35;;;;;;;;;;;;;;;;;;5074186;28;20013;-78
2022/08/04 11:44:01;;;;;;;;;;;;;;;;;;5055852;28;20006;-78
2022/08/04 11:46:27;;;;;;;;;;;;;;;;;;5073947;28;20272;-78
2022/08/04 11:48:52;;;;;;;;;;;;;;;;;;5073393;28;19920;-78
2022/08/04 11:51:17;;;;;;;;;;;;;;;;;;5073613;28;20043;-77
2022/08/04 11:53:43;;;;;;;;;;;;;;;;;;5073326;28;20429;-78
2022/08/04 11:56:08;;;;;;;;;;;;;;;;;;5073684;28;20405;-78
2022/08/04 11:58:33;;;;;;;;;;;;;;;;;;5073519;28;19924;-76
2022/08/04 12:00:59;;;;;;;;;;;;;;;;;;5055806;28;20317;-76
2022/08/04 12:03:24;;;;;;;;;;;;;;;;;;5073005;28;19951;-77
2022/08/04 12:05:49;;;;;;;;;;;;;;;;;;5055370;28;20075;-76
2022/08/04 12:08:15;;;;;;;;;;;;;;;;;;5073590;28;19958;-78
2022/08/04 12:10:41;;;;;;;;;;;;;;;;;;5073278;28;20294;-77
2022/08/04 12:13:06;;;;;;;;;;;;;;;;;;5073007;28;19909;-77
2022/08/04 12:15:32;;;;;;;;;;;;;;;;;;5073516;28;19942;-77
2022/08/04 12:17:57;;;;;;;;;;;;;;;;;;5055412;28;19912;-77
2022/08/04 12:20:23;;;;;;;;;;;;;;;;;;5073211;28;20295;-77
2022/08/04 12:22:48;;;;;;;;;;;;;;;;;;5072991;28;19985;-77
2022/08/04 12:25:13;;;;;;;;;;;;;;;;;;5072915;28;20013;-78
2022/08/04 12:27:39;;;;;;;;;;;;;;;;;;5073017;28;19917;-77
2022/08/04 12:30:04;;;;;;;;;;;;;;;;;;5072933;28;20007;-77
2022/08/04 12:32:29;;;;;;;;;;;;;;;;;;5054400;28;19912;-77
2022/08/04 12:34:55;;;;;;;;;;;;;;;;;;5072719;28;19917;-79
2022/08/04 12:37:20;;;;;;;;;;;;;;;;;;5072904;28;20383;-77
2022/08/04 12:39:45;;;;;;;;;;;;;;;;;;5072529;28;20003;-79
2022/08/04 12:42:11;;;;;;;;;;;;;;;;;;5072743;28;20011;-77
2022/08/04 12:44:36;;;;;;;;;;;;;;;;;;5072094;28;20008;-76
2022/08/04 12:47:02;;;;;;;;;;;;;;;;;;5037953;28;19912;-78
2022/08/04 12:49:28;;;;;;;;;;;;;;;;;;5054628;28;19955;-77
2022/08/04 12:51:53;;;;;;;;;;;;;;;;;;5054668;28;19912;-79
2022/08/04 12:54:18;;;;;;;;;;;;;;;;;;5072092;28;20022;-77
2022/08/04 12:56:44;;;;;;;;;;;;;;;;;;5054541;28;19927;-77
2022/08/04 12:59:09;;;;;;;;;;;;;;;;;;5036743;28;19917;-77
2022/08/04 13:01:34;;;;;;;;;;;;;;;;;;5054587;28;19919;-76
2022/08/04 13:04:01;;;;;;;;;;;;;;;;;;5072131;28;19912;-77
2022/08/04 13:06:26;;;;;;;;;;;;;;;;;;5072564;28;20382;-76
2022/08/04 13:08:51;;;;;;;;;;;;;;;;;;5054654;28;19913;-77
2022/08/04 13:11:17;;;;;;;;;;;;;;;;;;5072356;28;20003;-77
2022/08/04 13:13:42;;;;;;;;;;;;;;;;;;5071784;28;19967;-76
2022/08/04 13:16:07;;;;;;;;;;;;;;;;;;5072087;28;19994;-77
2022/08/04 13:18:33;;;;;;;;;;;;;;;;;;5072189;28;19938;-76
2022/08/04 13:20:58;;;;;;;;;;;;;;;;;;5071950;28;20326;-78
2022/08/04 13:23:24;;;;;;;;;;;;;;;;;;5072048;28;20333;-78
2022/08/04 13:25:49;;;;;;;;;;;;;;;;;;5072209;28;19916;-77
2022/08/04 13:28:15;;;;;;;;;;;;;;;;;;5054070;28;19974;-77
2022/08/04 13:30:40;;;;;;;;;;;;;;;;;;5053755;28;19916;-77
2022/08/04 13:33:06;;;;;;;;;;;;;;;;;;5036926;28;19958;-78
2022/08/04 13:35:31;;;;;;;;;;;;;;;;;;5054087;28;19912;-76
2022/08/04 13:37:56;;;;;;;;;;;;;;;;;;5071991;28;19912;-76
2022/08/04 13:40:22;;;;;;;;;;;;;;;;;;5071609;28;19920;-77
2022/08/04 13:42:47;;;;;;;;;;;;;;;;;;5071407;28;20448;-77
2022/08/04 13:45:13;;;;;;;;;;;;;;;;;;5037301;28;19939;-77
2022/08/04 13:47:38;;;;;;;;;;;;;;;;;;5054058;28;19912;-78
2022/08/04 13:50:03;;;;;;;;;;;;;;;;;;5053988;28;19920;-77
2022/08/04 13:52:29;;;;;;;;;;;;;;;;;;5054524;28;19963;-78
2022/08/04 13:54:54;;;;;;;;;;;;;;;;;;5071241;28;19919;-76
2022/08/04 13:57:20;;;;;;;;;;;;;;;;;;5053905;28;20383;-77
2022/08/04 13:59:45;;;;;;;;;;;;;;;;;;5071550;28;19916;-76
2022/08/04 14:02:10;;;;;;;;;;;;;;;;;;5053883;28;19936;-77
2022/08/04 14:04:36;;;;;;;;;;;;;;;;;;5071130;28;20269;-77
2022/08/04 14:07:02;;;;;;;;;;;;;;;;;;5053681;28;19988;-78
2022/08/04 14:09:27;;;;;;;;;;;;;;;;;;5071260;28;19916;-77
2022/08/04 14:11:52;;;;;;;;;;;;;;;;;;5071330;28;20015;-77
2022/08/04 14:14:18;;;;;;;;;;;;;;;;;;5071300;28;20451;-77
2022/08/04 14:16:43;;;;;;;;;;;;;;;;;;5071284;28;19912;-78
2022/08/04 14:19:09;;;;;;;;;;;;;;;;;;5053034;28;19935;-78
2022/08/04 14:21:34;;;;;;;;;;;;;;;;;;5071349;28;19919;-77
2022/08/04 14:23:59;;;;;;;;;;;;;;;;;;5071478;28;19926;-77
2022/08/04 14:26:25;;;;;;;;;;;;;;;;;;5071537;28;19913;-78
2022/08/04 14:28:50;;;;;;;;;;;;;;;;;;5071527;28;19924;-78
2022/08/04 14:31:15;;;;;;;;;;;;;;;;;;5070738;28;20387;-76
2022/08/04 14:33:41;;;;;;;;;;;;;;;;;;5071407;28;19913;-78
2022/08/04 14:36:06;;;;;;;;;;;;;;;;;;5072251;28;19912;-78
2022/08/04 14:38:32;;;;;;;;;;;;;;;;;;5071973;28;20269;-78
2022/08/04 14:40:57;;;;;;;;;;;;;;;;;;5071929;28;19915;-77
2022/08/04 14:43:23;;;;;;;;;;;;;;;;;;5072184;28;19912;-78
2022/08/04 14:45:53;;;;;;;;;;;;;;;;;;5071624;28;20339;-77
2022/08/04 14:48:18;;;;;;;;;;;;;;;;;;5037865;28;19913;-77
2022/08/04 14:50:44;;;;;;;;;;;;;;;;;;5053923;28;19953;-79
2022/08/04 14:53:09;;;;;;;;;;;;;;;;;;5020781;28;19913;-78
2022/08/04 14:55:35;;;;;;;;;;;;;;;;;;5052631;28;19913;-79
2022/08/04 14:58:00;;;;;;;;;;;;;;;;;;5071424;28;19912;-76
2022/08/04 15:00:26;;;;;;;;;;;;;;;;;;5052904;28;20295;-78
2022/08/04 15:02:51;;;;;;;;;;;;;;;;;;5053071;28;19959;-78
2022/08/04 15:05:17;;;;;;;;;;;;;;;;;;5071505;28;19940;-77
2022/08/04 15:07:42;;;;;;;;;;;;;;;;;;5053403;28;19909;-78
2022/08/04 15:10:08;;;;;;;;;;;;;;;;;;5053318;28;20070;-79
2022/08/04 15:12:33;;;;;;;;;;;;;;;;;;5053321;28;20489;-78
2022/08/04 15:14:58;;;;;;;;;;;;;;;;;;5071190;28;20465;-78
2022/08/04 15:17:24;;;;;;;;;;;;;;;;;;5052842;28;19912;-78
2022/08/04 15:19:49;;;;;;;;;;;;;;;;;;5052881;28;19951;-78
2022/08/04 15:22:15;;;;;;;;;;;;;;;;;;5071323;28;20398;-77
2022/08/04 15:24:40;;;;;;;;;;;;;;;;;;5074486;28;19912;-78
2022/08/04 15:27:05;;;;;;;;;;;;;;;;;;5074324;28;19967;-77
2022/08/04 15:31:57;;;;;;;;;;;;;;;;;;5011424;28;19929;-81
2022/08/04 15:34:23;;;;;;;;;;;;;;;;;;5029791;28;19920;-80
2022/08/04 15:36:48;;;;;;;;;;;;;;;;;;5014735;28;20438;-80
2022/08/04 15:39:14;;;;;;;;;;;;;;;;;;5013067;28;20443;-80
2022/08/04 15:41:39;;;;;;;;;;;;;;;;;;5013404;28;19921;-80
2022/08/04 15:44:04;;;;;;;;;;;;;;;;;;5014260;28;20323;-82
2022/08/04 15:46:30;;;;;;;;;;;;;;;;;;5014622;28;19956;-80
2022/08/04 15:48:55;;;;;;;;;;;;;;;;;;5014344;28;20047;-81
2022/08/04 15:51:20;;;;;;;;;;;;;;;;;;5013228;28;19914;-81
2022/08/04 15:53:46;;;;;;;;;;;;;;;;;;5012987;28;19913;-81
2022/08/04 15:56:11;;;;;;;;;;;;;;;;;;4996702;28;19917;-80
2022/08/04 15:58:36;;;;;;;;;;;;;;;;;;5014333;28;19972;-80
2022/08/04 16:01:02;;;;;;;;;;;;;;;;;;5014064;28;20265;-83
2022/08/04 16:03:30;;;;;;;;;;;;;;;;;;4996578;28;19920;-81
2022/08/04 16:05:55;;;;;;;;;;;;;;;;;;5014205;28;19913;-80
2022/08/04 16:08:21;;;;;;;;;;;;;;;;;;4996863;28;19921;-81
2022/08/04 16:10:47;;;;;;;;;;;;;;;;;;5014045;28;20387;-80
2022/08/04 16:13:13;;;;;;;;;;;;;;;;;;5013710;28;19917;-81
2022/08/04 16:15:38;;;;;;;;;;;;;;;;;;5012980;28;19963;-81
2022/08/04 16:18:04;;;;;;;;;;;;;;;;;;5012625;28;19913;-81
2022/08/04 16:20:29;;;;;;;;;;;;;;;;;;5012317;28;19918;-81
2022/08/04 16:22:54;;;;;;;;;;;;;;;;;;5013397;28;19913;-80
2022/08/04 16:25:20;;;;;;;;;;;;;;;;;;5013851;28;20472;-80
2022/08/04 16:27:45;;;;;;;;;;;;;;;;;;5013631;28;19967;-81
2022/08/04 16:30:11;;;;;;;;;;;;;;;;;;5013663;28;20003;-81
2022/08/04 16:32:37;;;;;;;;;;;;;;;;;;5012402;28;19921;-81
2022/08/04 16:35:03;;;;;;;;;;;;;;;;;;5012601;28;19913;-80
2022/08/04 16:37:29;;;;;;;;;;;;;;;;;;5012364;28;19913;-80